sensor_id;sensor_type;location;lat;lon;timestamp;P1;durP1;ratioP1;P2;durP2;ratioP2
24637;SDS011;12773;50.162;8.548;2023-12-20T00:02:03;18.67;;;8.08;;
24637;SDS011;12773;50.162;8.548;2023-12-20T00:04:50;23.18;;;8.95;;
24637;SDS011;12773;50.162;8.548;2023-12-20T00:07:38;23.67;;;8.30;;
24637;SDS011;12773;50.162;8.548;2023-12-20T00:10:28;27.73;;;9.00;;
24637;SDS011;12773;50.162;8.548;2023-12-20T00:13:16;21.23;;;8.70;;
24637;SDS011;12773;50.162;8.548;2023-12-20T00:16:03;19.37;;;8.65;;
24637;SDS011;12773;50.162;8.548;2023-12-20T00:18:51;19.65;;;7.75;;
24637;SDS011;12773;50.162;8.548;2023-12-20T00:21:39;20.43;;;7.67;;
24637;SDS011;12773;50.162;8.548;2023-12-20T00:24:26;17.27;;;7.58;;
24637;SDS011;12773;50.162;8.548;2023-12-20T00:27:14;20.43;;;8.08;;
24637;SDS011;12773;50.162;8.548;2023-12-20T00:30:01;18.70;;;8.48;;
24637;SDS011;12773;50.162;8.548;2023-12-20T00:32:49;25.85;;;8.35;;
24637;SDS011;12773;50.162;8.548;2023-12-20T00:35:37;17.05;;;7.78;;
24637;SDS011;12773;50.162;8.548;2023-12-20T00:38:24;21.17;;;7.65;;
24637;SDS011;12773;50.162;8.548;2023-12-20T00:41:12;19.98;;;7.75;;
24637;SDS011;12773;50.162;8.548;2023-12-20T00:43:59;24.18;;;8.05;;
24637;SDS011;12773;50.162;8.548;2023-12-20T00:46:46;18.67;;;7.83;;
24637;SDS011;12773;50.162;8.548;2023-12-20T00:49:34;17.37;;;7.15;;
24637;SDS011;12773;50.162;8.548;2023-12-20T00:52:22;17.48;;;7.00;;
24637;SDS011;12773;50.162;8.548;2023-12-20T00:55:09;17.05;;;7.15;;
24637;SDS011;12773;50.162;8.548;2023-12-20T00:57:57;19.77;;;7.25;;
24637;SDS011;12773;50.162;8.548;2023-12-20T01:00:46;18.75;;;7.55;;
24637;SDS011;12773;50.162;8.548;2023-12-20T01:03:34;18.40;;;7.85;;
24637;SDS011;12773;50.162;8.548;2023-12-20T01:06:22;19.95;;;7.87;;
24637;SDS011;12773;50.162;8.548;2023-12-20T01:09:10;19.15;;;7.65;;
24637;SDS011;12773;50.162;8.548;2023-12-20T01:11:57;18.40;;;7.70;;
24637;SDS011;12773;50.162;8.548;2023-12-20T01:14:44;18.67;;;8.43;;
24637;SDS011;12773;50.162;8.548;2023-12-20T01:17:32;20.55;;;7.90;;
24637;SDS011;12773;50.162;8.548;2023-12-20T01:20:20;18.98;;;7.42;;
24637;SDS011;12773;50.162;8.548;2023-12-20T01:23:07;20.08;;;8.03;;
24637;SDS011;12773;50.162;8.548;2023-12-20T01:25:55;13.62;;;7.25;;
24637;SDS011;12773;50.162;8.548;2023-12-20T01:28:42;16.02;;;7.37;;
24637;SDS011;12773;50.162;8.548;2023-12-20T01:31:30;21.55;;;8.08;;
24637;SDS011;12773;50.162;8.548;2023-12-20T01:34:20;19.85;;;7.28;;
24637;SDS011;12773;50.162;8.548;2023-12-20T01:37:08;17.77;;;7.50;;
24637;SDS011;12773;50.162;8.548;2023-12-20T01:39:56;18.45;;;7.33;;
24637;SDS011;12773;50.162;8.548;2023-12-20T01:42:44;18.42;;;8.08;;
24637;SDS011;12773;50.162;8.548;2023-12-20T01:45:32;19.75;;;7.62;;
24637;SDS011;12773;50.162;8.548;2023-12-20T01:48:20;14.53;;;6.62;;
24637;SDS011;12773;50.162;8.548;2023-12-20T01:51:07;17.67;;;7.03;;
24637;SDS011;12773;50.162;8.548;2023-12-20T01:53:56;17.23;;;7.17;;
24637;SDS011;12773;50.162;8.548;2023-12-20T01:56:46;16.70;;;8.00;;
24637;SDS011;12773;50.162;8.548;2023-12-20T01:59:35;17.15;;;7.62;;
24637;SDS011;12773;50.162;8.548;2023-12-20T02:02:23;16.77;;;7.78;;
24637;SDS011;12773;50.162;8.548;2023-12-20T02:05:11;15.08;;;7.20;;
24637;SDS011;12773;50.162;8.548;2023-12-20T02:07:59;13.05;;;6.67;;
24637;SDS011;12773;50.162;8.548;2023-12-20T02:10:47;13.28;;;6.47;;
24637;SDS011;12773;50.162;8.548;2023-12-20T02:13:34;14.38;;;6.33;;
24637;SDS011;12773;50.162;8.548;2023-12-20T02:16:22;15.88;;;7.03;;
24637;SDS011;12773;50.162;8.548;2023-12-20T02:19:13;14.47;;;7.00;;
24637;SDS011;12773;50.162;8.548;2023-12-20T02:22:05;16.17;;;6.97;;
24637;SDS011;12773;50.162;8.548;2023-12-20T02:25:00;15.68;;;6.85;;
24637;SDS011;12773;50.162;8.548;2023-12-20T02:27:50;18.98;;;6.95;;
24637;SDS011;12773;50.162;8.548;2023-12-20T02:30:39;14.95;;;6.92;;
24637;SDS011;12773;50.162;8.548;2023-12-20T02:33:26;15.85;;;7.40;;
24637;SDS011;12773;50.162;8.548;2023-12-20T02:36:14;18.23;;;6.97;;
24637;SDS011;12773;50.162;8.548;2023-12-20T02:39:04;14.58;;;6.22;;
24637;SDS011;12773;50.162;8.548;2023-12-20T02:41:51;16.60;;;7.42;;
24637;SDS011;12773;50.162;8.548;2023-12-20T02:44:39;14.25;;;6.45;;
24637;SDS011;12773;50.162;8.548;2023-12-20T02:47:26;14.98;;;6.78;;
24637;SDS011;12773;50.162;8.548;2023-12-20T02:50:16;16.93;;;7.12;;
24637;SDS011;12773;50.162;8.548;2023-12-20T02:53:03;17.05;;;6.97;;
24637;SDS011;12773;50.162;8.548;2023-12-20T02:55:51;16.02;;;6.97;;
24637;SDS011;12773;50.162;8.548;2023-12-20T02:58:38;16.50;;;6.92;;
24637;SDS011;12773;50.162;8.548;2023-12-20T03:01:25;17.55;;;6.95;;
24637;SDS011;12773;50.162;8.548;2023-12-20T03:04:14;15.78;;;6.67;;
24637;SDS011;12773;50.162;8.548;2023-12-20T03:07:01;16.17;;;6.78;;
24637;SDS011;12773;50.162;8.548;2023-12-20T03:09:49;16.97;;;6.60;;
24637;SDS011;12773;50.162;8.548;2023-12-20T03:12:39;14.58;;;5.75;;
24637;SDS011;12773;50.162;8.548;2023-12-20T03:15:27;13.65;;;5.58;;
24637;SDS011;12773;50.162;8.548;2023-12-20T03:18:20;15.63;;;6.53;;
24637;SDS011;12773;50.162;8.548;2023-12-20T03:21:03;13.53;;;5.85;;
24637;SDS011;12773;50.162;8.548;2023-12-20T03:23:52;14.45;;;6.15;;
24637;SDS011;12773;50.162;8.548;2023-12-20T03:26:39;12.25;;;5.53;;
24637;SDS011;12773;50.162;8.548;2023-12-20T03:29:26;13.10;;;5.50;;
24637;SDS011;12773;50.162;8.548;2023-12-20T03:32:14;12.45;;;5.67;;
24637;SDS011;12773;50.162;8.548;2023-12-20T03:35:01;16.48;;;6.70;;
24637;SDS011;12773;50.162;8.548;2023-12-20T03:37:49;13.38;;;5.62;;
24637;SDS011;12773;50.162;8.548;2023-12-20T03:40:37;9.30;;;4.97;;
24637;SDS011;12773;50.162;8.548;2023-12-20T03:43:25;13.30;;;5.47;;
24637;SDS011;12773;50.162;8.548;2023-12-20T03:46:12;11.30;;;5.03;;
24637;SDS011;12773;50.162;8.548;2023-12-20T03:49:00;9.83;;;4.90;;
24637;SDS011;12773;50.162;8.548;2023-12-20T03:51:49;11.50;;;4.97;;
24637;SDS011;12773;50.162;8.548;2023-12-20T03:54:36;10.88;;;5.15;;
24637;SDS011;12773;50.162;8.548;2023-12-20T03:57:24;9.68;;;4.47;;
24637;SDS011;12773;50.162;8.548;2023-12-20T04:00:12;7.95;;;4.05;;
24637;SDS011;12773;50.162;8.548;2023-12-20T04:02:59;12.43;;;5.08;;
24637;SDS011;12773;50.162;8.548;2023-12-20T04:05:47;8.10;;;4.62;;
24637;SDS011;12773;50.162;8.548;2023-12-20T04:08:34;13.25;;;5.00;;
24637;SDS011;12773;50.162;8.548;2023-12-20T04:11:22;8.43;;;4.55;;
24637;SDS011;12773;50.162;8.548;2023-12-20T04:14:10;9.05;;;4.58;;
24637;SDS011;12773;50.162;8.548;2023-12-20T04:16:57;12.07;;;4.92;;
24637;SDS011;12773;50.162;8.548;2023-12-20T04:19:45;10.23;;;4.58;;
24637;SDS011;12773;50.162;8.548;2023-12-20T04:22:32;13.08;;;4.62;;
24637;SDS011;12773;50.162;8.548;2023-12-20T04:25:20;10.00;;;4.58;;
24637;SDS011;12773;50.162;8.548;2023-12-20T04:28:08;8.60;;;4.45;;
24637;SDS011;12773;50.162;8.548;2023-12-20T04:30:56;10.85;;;4.92;;
24637;SDS011;12773;50.162;8.548;2023-12-20T04:33:43;9.30;;;4.42;;
24637;SDS011;12773;50.162;8.548;2023-12-20T04:36:31;10.58;;;4.65;;
24637;SDS011;12773;50.162;8.548;2023-12-20T04:39:19;10.78;;;4.60;;
24637;SDS011;12773;50.162;8.548;2023-12-20T04:42:06;12.82;;;5.17;;
24637;SDS011;12773;50.162;8.548;2023-12-20T04:44:54;10.78;;;5.08;;
24637;SDS011;12773;50.162;8.548;2023-12-20T04:47:44;10.23;;;5.05;;
24637;SDS011;12773;50.162;8.548;2023-12-20T04:50:33;9.08;;;4.85;;
24637;SDS011;12773;50.162;8.548;2023-12-20T04:53:21;9.00;;;4.45;;
24637;SDS011;12773;50.162;8.548;2023-12-20T04:56:09;11.50;;;4.45;;
24637;SDS011;12773;50.162;8.548;2023-12-20T04:58:56;10.25;;;4.55;;
24637;SDS011;12773;50.162;8.548;2023-12-20T05:01:44;10.30;;;5.25;;
24637;SDS011;12773;50.162;8.548;2023-12-20T05:04:31;11.95;;;4.92;;
24637;SDS011;12773;50.162;8.548;2023-12-20T05:07:19;12.15;;;5.53;;
24637;SDS011;12773;50.162;8.548;2023-12-20T05:10:07;13.28;;;5.28;;
24637;SDS011;12773;50.162;8.548;2023-12-20T05:12:54;17.80;;;5.90;;
24637;SDS011;12773;50.162;8.548;2023-12-20T05:15:42;17.82;;;5.50;;
24637;SDS011;12773;50.162;8.548;2023-12-20T05:18:29;11.93;;;5.70;;
24637;SDS011;12773;50.162;8.548;2023-12-20T05:21:22;14.60;;;5.75;;
24637;SDS011;12773;50.162;8.548;2023-12-20T05:24:05;10.15;;;4.53;;
24637;SDS011;12773;50.162;8.548;2023-12-20T05:26:54;11.95;;;4.42;;
24637;SDS011;12773;50.162;8.548;2023-12-20T05:29:41;11.33;;;4.67;;
24637;SDS011;12773;50.162;8.548;2023-12-20T05:32:29;10.00;;;4.10;;
24637;SDS011;12773;50.162;8.548;2023-12-20T05:35:16;12.65;;;3.77;;
24637;SDS011;12773;50.162;8.548;2023-12-20T05:38:05;13.05;;;3.10;;
24637;SDS011;12773;50.162;8.548;2023-12-20T05:40:53;11.78;;;2.77;;
24637;SDS011;12773;50.162;8.548;2023-12-20T05:43:40;11.40;;;2.35;;
24637;SDS011;12773;50.162;8.548;2023-12-20T05:46:28;8.83;;;2.72;;
24637;SDS011;12773;50.162;8.548;2023-12-20T05:49:15;6.95;;;2.67;;
24637;SDS011;12773;50.162;8.548;2023-12-20T05:52:03;6.95;;;2.40;;
24637;SDS011;12773;50.162;8.548;2023-12-20T05:54:50;10.20;;;3.22;;
24637;SDS011;12773;50.162;8.548;2023-12-20T05:57:38;11.73;;;3.67;;
24637;SDS011;12773;50.162;8.548;2023-12-20T06:00:26;13.22;;;3.70;;
24637;SDS011;12773;50.162;8.548;2023-12-20T06:03:14;13.50;;;3.42;;
24637;SDS011;12773;50.162;8.548;2023-12-20T06:06:08;14.90;;;3.10;;
24637;SDS011;12773;50.162;8.548;2023-12-20T06:08:57;16.02;;;3.35;;
24637;SDS011;12773;50.162;8.548;2023-12-20T06:11:44;16.67;;;3.33;;
24637;SDS011;12773;50.162;8.548;2023-12-20T06:14:32;9.95;;;3.17;;
24637;SDS011;12773;50.162;8.548;2023-12-20T06:17:20;16.07;;;3.33;;
24637;SDS011;12773;50.162;8.548;2023-12-20T06:20:08;11.97;;;2.85;;
24637;SDS011;12773;50.162;8.548;2023-12-20T06:22:56;14.13;;;2.85;;
24637;SDS011;12773;50.162;8.548;2023-12-20T06:25:44;20.32;;;3.35;;
24637;SDS011;12773;50.162;8.548;2023-12-20T06:28:31;12.20;;;3.35;;
24637;SDS011;12773;50.162;8.548;2023-12-20T06:31:19;12.73;;;3.98;;
24637;SDS011;12773;50.162;8.548;2023-12-20T06:34:06;16.70;;;2.95;;
24637;SDS011;12773;50.162;8.548;2023-12-20T06:36:54;20.77;;;3.45;;
24637;SDS011;12773;50.162;8.548;2023-12-20T06:39:41;15.30;;;2.85;;
24637;SDS011;12773;50.162;8.548;2023-12-20T06:42:29;15.63;;;3.02;;
24637;SDS011;12773;50.162;8.548;2023-12-20T06:45:17;14.65;;;2.85;;
24637;SDS011;12773;50.162;8.548;2023-12-20T06:48:05;17.17;;;3.10;;
24637;SDS011;12773;50.162;8.548;2023-12-20T06:50:53;16.25;;;2.67;;
24637;SDS011;12773;50.162;8.548;2023-12-20T06:53:40;12.98;;;3.10;;
24637;SDS011;12773;50.162;8.548;2023-12-20T06:56:28;20.40;;;2.77;;
24637;SDS011;12773;50.162;8.548;2023-12-20T06:59:16;18.67;;;3.12;;
24637;SDS011;12773;50.162;8.548;2023-12-20T07:02:05;12.33;;;2.87;;
24637;SDS011;12773;50.162;8.548;2023-12-20T07:04:54;11.22;;;2.90;;
24637;SDS011;12773;50.162;8.548;2023-12-20T07:07:57;16.10;;;3.12;;
24637;SDS011;12773;50.162;8.548;2023-12-20T07:10:41;17.98;;;3.40;;
24637;SDS011;12773;50.162;8.548;2023-12-20T07:13:29;14.70;;;3.22;;
24637;SDS011;12773;50.162;8.548;2023-12-20T07:16:17;12.55;;;3.60;;
24637;SDS011;12773;50.162;8.548;2023-12-20T07:19:04;15.70;;;4.08;;
24637;SDS011;12773;50.162;8.548;2023-12-20T07:21:52;15.23;;;4.30;;
24637;SDS011;12773;50.162;8.548;2023-12-20T07:24:41;11.78;;;4.78;;
24637;SDS011;12773;50.162;8.548;2023-12-20T07:27:29;19.65;;;4.95;;
24637;SDS011;12773;50.162;8.548;2023-12-20T07:30:16;24.55;;;5.08;;
24637;SDS011;12773;50.162;8.548;2023-12-20T07:33:04;14.80;;;4.20;;
24637;SDS011;12773;50.162;8.548;2023-12-20T07:35:53;19.48;;;4.75;;
24637;SDS011;12773;50.162;8.548;2023-12-20T07:38:41;9.78;;;4.50;;
24637;SDS011;12773;50.162;8.548;2023-12-20T07:41:29;22.20;;;4.65;;
24637;SDS011;12773;50.162;8.548;2023-12-20T07:44:17;14.47;;;4.92;;
24637;SDS011;12773;50.162;8.548;2023-12-20T07:47:04;20.80;;;5.58;;
24637;SDS011;12773;50.162;8.548;2023-12-20T07:49:52;15.13;;;4.35;;
24637;SDS011;12773;50.162;8.548;2023-12-20T07:52:40;15.28;;;4.45;;
24637;SDS011;12773;50.162;8.548;2023-12-20T07:55:28;23.87;;;4.53;;
24637;SDS011;12773;50.162;8.548;2023-12-20T07:58:16;9.93;;;4.22;;
24637;SDS011;12773;50.162;8.548;2023-12-20T08:01:04;14.13;;;3.92;;
24637;SDS011;12773;50.162;8.548;2023-12-20T08:03:51;11.55;;;4.15;;
24637;SDS011;12773;50.162;8.548;2023-12-20T08:06:39;14.30;;;3.60;;
24637;SDS011;12773;50.162;8.548;2023-12-20T08:09:27;7.85;;;3.33;;
24637;SDS011;12773;50.162;8.548;2023-12-20T08:12:14;15.35;;;4.47;;
24637;SDS011;12773;50.162;8.548;2023-12-20T08:15:02;16.32;;;3.72;;
24637;SDS011;12773;50.162;8.548;2023-12-20T08:17:50;33.80;;;11.15;;
24637;SDS011;12773;50.162;8.548;2023-12-20T08:20:38;13.53;;;4.40;;
24637;SDS011;12773;50.162;8.548;2023-12-20T08:23:26;11.55;;;3.40;;
24637;SDS011;12773;50.162;8.548;2023-12-20T08:26:18;17.85;;;3.83;;
24637;SDS011;12773;50.162;8.548;2023-12-20T08:29:10;9.95;;;3.30;;
24637;SDS011;12773;50.162;8.548;2023-12-20T08:32:01;8.78;;;3.87;;
24637;SDS011;12773;50.162;8.548;2023-12-20T08:34:49;19.02;;;3.60;;
24637;SDS011;12773;50.162;8.548;2023-12-20T08:37:37;13.00;;;3.20;;
24637;SDS011;12773;50.162;8.548;2023-12-20T08:40:24;9.28;;;3.20;;
24637;SDS011;12773;50.162;8.548;2023-12-20T08:43:12;12.88;;;3.42;;
24637;SDS011;12773;50.162;8.548;2023-12-20T08:46:00;12.47;;;3.22;;
24637;SDS011;12773;50.162;8.548;2023-12-20T08:48:47;12.55;;;2.85;;
24637;SDS011;12773;50.162;8.548;2023-12-20T08:51:36;6.53;;;3.17;;
24637;SDS011;12773;50.162;8.548;2023-12-20T08:54:27;8.73;;;3.27;;
24637;SDS011;12773;50.162;8.548;2023-12-20T08:57:14;17.95;;;3.25;;
24637;SDS011;12773;50.162;8.548;2023-12-20T09:00:01;14.10;;;2.65;;
24637;SDS011;12773;50.162;8.548;2023-12-20T09:02:51;12.80;;;3.12;;
24637;SDS011;12773;50.162;8.548;2023-12-20T09:05:38;9.70;;;2.12;;
24637;SDS011;12773;50.162;8.548;2023-12-20T09:08:26;14.00;;;2.60;;
24637;SDS011;12773;50.162;8.548;2023-12-20T09:11:14;9.38;;;1.70;;
24637;SDS011;12773;50.162;8.548;2023-12-20T09:14:03;8.53;;;2.15;;
24637;SDS011;12773;50.162;8.548;2023-12-20T09:16:51;9.13;;;1.75;;
24637;SDS011;12773;50.162;8.548;2023-12-20T09:19:40;11.55;;;2.20;;
24637;SDS011;12773;50.162;8.548;2023-12-20T09:22:29;7.78;;;2.10;;
24637;SDS011;12773;50.162;8.548;2023-12-20T09:25:17;11.33;;;2.77;;
24637;SDS011;12773;50.162;8.548;2023-12-20T09:28:07;11.65;;;2.30;;
24637;SDS011;12773;50.162;8.548;2023-12-20T09:30:54;7.12;;;2.25;;
24637;SDS011;12773;50.162;8.548;2023-12-20T09:33:43;10.95;;;2.72;;
24637;SDS011;12773;50.162;8.548;2023-12-20T09:36:31;10.08;;;2.00;;
24637;SDS011;12773;50.162;8.548;2023-12-20T09:39:20;8.18;;;1.70;;
24637;SDS011;12773;50.162;8.548;2023-12-20T09:42:12;11.65;;;2.37;;
24637;SDS011;12773;50.162;8.548;2023-12-20T09:45:03;10.50;;;1.90;;
24637;SDS011;12773;50.162;8.548;2023-12-20T09:47:53;15.05;;;3.25;;
24637;SDS011;12773;50.162;8.548;2023-12-20T09:50:41;10.13;;;2.00;;
24637;SDS011;12773;50.162;8.548;2023-12-20T09:53:31;10.45;;;2.45;;
24637;SDS011;12773;50.162;8.548;2023-12-20T09:56:22;15.72;;;2.33;;
24637;SDS011;12773;50.162;8.548;2023-12-20T09:59:11;11.65;;;2.08;;
24637;SDS011;12773;50.162;8.548;2023-12-20T10:01:58;7.67;;;2.20;;
24637;SDS011;12773;50.162;8.548;2023-12-20T10:04:49;13.50;;;1.82;;
24637;SDS011;12773;50.162;8.548;2023-12-20T10:07:37;6.08;;;1.80;;
24637;SDS011;12773;50.162;8.548;2023-12-20T10:10:24;11.93;;;1.90;;
24637;SDS011;12773;50.162;8.548;2023-12-20T10:13:14;7.60;;;2.00;;
24637;SDS011;12773;50.162;8.548;2023-12-20T10:16:02;10.40;;;2.22;;
24637;SDS011;12773;50.162;8.548;2023-12-20T10:18:50;11.73;;;1.95;;
24637;SDS011;12773;50.162;8.548;2023-12-20T10:21:39;14.85;;;2.12;;
24637;SDS011;12773;50.162;8.548;2023-12-20T10:24:28;8.80;;;1.55;;
24637;SDS011;12773;50.162;8.548;2023-12-20T10:27:18;9.55;;;2.20;;
24637;SDS011;12773;50.162;8.548;2023-12-20T10:30:05;11.10;;;1.90;;
24637;SDS011;12773;50.162;8.548;2023-12-20T10:32:56;7.35;;;1.95;;
24637;SDS011;12773;50.162;8.548;2023-12-20T10:35:44;5.25;;;1.80;;
24637;SDS011;12773;50.162;8.548;2023-12-20T10:38:33;5.72;;;1.90;;
24637;SDS011;12773;50.162;8.548;2023-12-20T10:41:26;8.53;;;2.10;;
24637;SDS011;12773;50.162;8.548;2023-12-20T10:44:14;9.13;;;2.33;;
24637;SDS011;12773;50.162;8.548;2023-12-20T10:47:03;4.85;;;1.52;;
24637;SDS011;12773;50.162;8.548;2023-12-20T10:49:51;10.78;;;1.98;;
24637;SDS011;12773;50.162;8.548;2023-12-20T10:52:39;8.60;;;2.00;;
24637;SDS011;12773;50.162;8.548;2023-12-20T10:55:28;6.65;;;1.80;;
24637;SDS011;12773;50.162;8.548;2023-12-20T10:58:16;11.33;;;1.82;;
24637;SDS011;12773;50.162;8.548;2023-12-20T11:01:06;13.03;;;2.27;;
24637;SDS011;12773;50.162;8.548;2023-12-20T11:03:55;7.67;;;1.80;;
24637;SDS011;12773;50.162;8.548;2023-12-20T11:06:47;7.95;;;1.67;;
24637;SDS011;12773;50.162;8.548;2023-12-20T11:09:43;7.40;;;1.62;;
24637;SDS011;12773;50.162;8.548;2023-12-20T11:12:45;11.70;;;2.00;;
24637;SDS011;12773;50.162;8.548;2023-12-20T11:15:25;7.10;;;1.17;;
24637;SDS011;12773;50.162;8.548;2023-12-20T11:18:14;8.75;;;1.80;;
24637;SDS011;12773;50.162;8.548;2023-12-20T11:21:02;10.53;;;1.75;;
24637;SDS011;12773;50.162;8.548;2023-12-20T11:23:51;11.85;;;1.85;;
24637;SDS011;12773;50.162;8.548;2023-12-20T11:26:39;9.75;;;1.60;;
24637;SDS011;12773;50.162;8.548;2023-12-20T11:29:30;9.93;;;1.82;;
24637;SDS011;12773;50.162;8.548;2023-12-20T11:35:16;10.80;;;1.50;;
24637;SDS011;12773;50.162;8.548;2023-12-20T11:38:08;6.72;;;1.70;;
24637;SDS011;12773;50.162;8.548;2023-12-20T11:40:56;6.70;;;1.57;;
24637;SDS011;12773;50.162;8.548;2023-12-20T11:43:47;9.65;;;1.52;;
24637;SDS011;12773;50.162;8.548;2023-12-20T11:46:35;7.78;;;1.77;;
24637;SDS011;12773;50.162;8.548;2023-12-20T11:49:23;7.58;;;1.50;;
24637;SDS011;12773;50.162;8.548;2023-12-20T11:52:11;7.85;;;1.42;;
24637;SDS011;12773;50.162;8.548;2023-12-20T11:54:59;8.50;;;1.82;;
24637;SDS011;12773;50.162;8.548;2023-12-20T11:57:46;9.95;;;1.70;;
24637;SDS011;12773;50.162;8.548;2023-12-20T12:00:34;10.32;;;1.75;;
24637;SDS011;12773;50.162;8.548;2023-12-20T12:03:22;7.87;;;2.00;;
24637;SDS011;12773;50.162;8.548;2023-12-20T12:06:09;9.78;;;1.77;;
24637;SDS011;12773;50.162;8.548;2023-12-20T12:08:59;8.08;;;1.60;;
24637;SDS011;12773;50.162;8.548;2023-12-20T12:11:46;4.70;;;1.42;;
24637;SDS011;12773;50.162;8.548;2023-12-20T12:14:34;5.83;;;1.55;;
24637;SDS011;12773;50.162;8.548;2023-12-20T12:17:22;7.70;;;1.60;;
24637;SDS011;12773;50.162;8.548;2023-12-20T12:20:11;8.58;;;1.40;;
24637;SDS011;12773;50.162;8.548;2023-12-20T12:25:50;8.43;;;1.40;;
24637;SDS011;12773;50.162;8.548;2023-12-20T12:28:40;8.53;;;1.47;;
24637;SDS011;12773;50.162;8.548;2023-12-20T12:31:30;6.10;;;1.50;;
24637;SDS011;12773;50.162;8.548;2023-12-20T12:34:18;11.28;;;1.70;;
24637;SDS011;12773;50.162;8.548;2023-12-20T12:37:06;6.28;;;1.32;;
24637;SDS011;12773;50.162;8.548;2023-12-20T12:39:53;6.60;;;1.42;;
24637;SDS011;12773;50.162;8.548;2023-12-20T12:42:41;12.75;;;1.50;;
24637;SDS011;12773;50.162;8.548;2023-12-20T12:45:30;9.93;;;2.00;;
24637;SDS011;12773;50.162;8.548;2023-12-20T12:48:18;7.20;;;1.77;;
24637;SDS011;12773;50.162;8.548;2023-12-20T12:51:06;7.33;;;1.52;;
24637;SDS011;12773;50.162;8.548;2023-12-20T12:53:54;5.47;;;1.35;;
24637;SDS011;12773;50.162;8.548;2023-12-20T12:56:42;5.90;;;1.27;;
24637;SDS011;12773;50.162;8.548;2023-12-20T12:59:36;6.35;;;1.50;;
24637;SDS011;12773;50.162;8.548;2023-12-20T13:02:23;7.58;;;1.42;;
24637;SDS011;12773;50.162;8.548;2023-12-20T13:05:10;9.00;;;1.77;;
24637;SDS011;12773;50.162;8.548;2023-12-20T13:07:58;8.63;;;1.50;;
24637;SDS011;12773;50.162;8.548;2023-12-20T13:10:46;11.78;;;1.45;;
24637;SDS011;12773;50.162;8.548;2023-12-20T13:13:33;4.37;;;1.20;;
24637;SDS011;12773;50.162;8.548;2023-12-20T13:16:21;4.67;;;1.22;;
24637;SDS011;12773;50.162;8.548;2023-12-20T13:19:09;9.35;;;1.60;;
24637;SDS011;12773;50.162;8.548;2023-12-20T13:21:56;10.15;;;1.35;;
24637;SDS011;12773;50.162;8.548;2023-12-20T13:24:44;9.98;;;1.57;;
24637;SDS011;12773;50.162;8.548;2023-12-20T13:27:31;10.50;;;1.87;;
24637;SDS011;12773;50.162;8.548;2023-12-20T13:30:19;5.37;;;1.25;;
24637;SDS011;12773;50.162;8.548;2023-12-20T13:33:07;6.17;;;1.77;;
24637;SDS011;12773;50.162;8.548;2023-12-20T13:35:55;9.73;;;1.90;;
24637;SDS011;12773;50.162;8.548;2023-12-20T13:38:43;10.30;;;1.67;;
24637;SDS011;12773;50.162;8.548;2023-12-20T13:41:31;7.25;;;1.65;;
24637;SDS011;12773;50.162;8.548;2023-12-20T13:44:19;5.25;;;1.35;;
24637;SDS011;12773;50.162;8.548;2023-12-20T13:47:06;6.35;;;1.80;;
24637;SDS011;12773;50.162;8.548;2023-12-20T13:49:54;10.68;;;1.55;;
24637;SDS011;12773;50.162;8.548;2023-12-20T13:52:42;7.67;;;2.33;;
24637;SDS011;12773;50.162;8.548;2023-12-20T13:55:29;10.13;;;2.52;;
24637;SDS011;12773;50.162;8.548;2023-12-20T13:58:17;9.25;;;1.80;;
24637;SDS011;12773;50.162;8.548;2023-12-20T14:01:05;5.78;;;1.52;;
24637;SDS011;12773;50.162;8.548;2023-12-20T14:03:53;11.12;;;1.70;;
24637;SDS011;12773;50.162;8.548;2023-12-20T14:06:41;4.97;;;1.62;;
24637;SDS011;12773;50.162;8.548;2023-12-20T14:09:28;10.05;;;1.80;;
24637;SDS011;12773;50.162;8.548;2023-12-20T14:12:16;7.33;;;1.92;;
24637;SDS011;12773;50.162;8.548;2023-12-20T14:15:04;11.55;;;1.67;;
24637;SDS011;12773;50.162;8.548;2023-12-20T14:17:53;4.75;;;1.27;;
24637;SDS011;12773;50.162;8.548;2023-12-20T14:20:41;7.80;;;2.20;;
24637;SDS011;12773;50.162;8.548;2023-12-20T14:23:30;5.67;;;1.57;;
24637;SDS011;12773;50.162;8.548;2023-12-20T14:26:18;9.95;;;1.60;;
24637;SDS011;12773;50.162;8.548;2023-12-20T14:29:06;4.97;;;1.75;;
24637;SDS011;12773;50.162;8.548;2023-12-20T14:31:54;10.55;;;1.95;;
24637;SDS011;12773;50.162;8.548;2023-12-20T14:34:42;9.75;;;1.85;;
24637;SDS011;12773;50.162;8.548;2023-12-20T14:37:30;4.70;;;1.40;;
24637;SDS011;12773;50.162;8.548;2023-12-20T14:40:18;8.38;;;1.87;;
24637;SDS011;12773;50.162;8.548;2023-12-20T14:43:06;5.40;;;1.80;;
24637;SDS011;12773;50.162;8.548;2023-12-20T14:45:53;7.17;;;1.57;;
24637;SDS011;12773;50.162;8.548;2023-12-20T14:48:40;9.00;;;2.05;;
24637;SDS011;12773;50.162;8.548;2023-12-20T14:51:28;12.45;;;2.40;;
24637;SDS011;12773;50.162;8.548;2023-12-20T14:54:15;8.95;;;1.75;;
24637;SDS011;12773;50.162;8.548;2023-12-20T14:57:03;8.73;;;1.87;;
24637;SDS011;12773;50.162;8.548;2023-12-20T14:59:51;7.72;;;1.30;;
24637;SDS011;12773;50.162;8.548;2023-12-20T15:02:38;7.22;;;1.50;;
24637;SDS011;12773;50.162;8.548;2023-12-20T15:05:26;10.40;;;2.17;;
24637;SDS011;12773;50.162;8.548;2023-12-20T15:08:13;11.05;;;2.00;;
24637;SDS011;12773;50.162;8.548;2023-12-20T15:11:01;3.30;;;1.40;;
24637;SDS011;12773;50.162;8.548;2023-12-20T15:13:49;4.22;;;1.40;;
24637;SDS011;12773;50.162;8.548;2023-12-20T15:16:38;5.28;;;1.20;;
24637;SDS011;12773;50.162;8.548;2023-12-20T15:19:26;3.27;;;1.00;;
24637;SDS011;12773;50.162;8.548;2023-12-20T15:22:13;4.22;;;1.20;;
24637;SDS011;12773;50.162;8.548;2023-12-20T15:25:00;5.58;;;1.40;;
24637;SDS011;12773;50.162;8.548;2023-12-20T15:27:49;7.20;;;1.60;;
24637;SDS011;12773;50.162;8.548;2023-12-20T15:30:40;7.15;;;1.45;;
24637;SDS011;12773;50.162;8.548;2023-12-20T15:33:28;5.28;;;1.42;;
24637;SDS011;12773;50.162;8.548;2023-12-20T15:36:15;7.15;;;1.30;;
24637;SDS011;12773;50.162;8.548;2023-12-20T15:39:04;7.72;;;1.20;;
24637;SDS011;12773;50.162;8.548;2023-12-20T15:41:54;2.95;;;0.98;;
24637;SDS011;12773;50.162;8.548;2023-12-20T15:44:42;7.35;;;1.27;;
24637;SDS011;12773;50.162;8.548;2023-12-20T15:47:29;6.35;;;1.22;;
24637;SDS011;12773;50.162;8.548;2023-12-20T15:50:17;10.72;;;1.65;;
24637;SDS011;12773;50.162;8.548;2023-12-20T15:53:04;8.28;;;1.20;;
24637;SDS011;12773;50.162;8.548;2023-12-20T15:55:52;6.83;;;1.70;;
24637;SDS011;12773;50.162;8.548;2023-12-20T15:58:40;6.12;;;1.47;;
24637;SDS011;12773;50.162;8.548;2023-12-20T16:01:28;10.05;;;1.62;;
24637;SDS011;12773;50.162;8.548;2023-12-20T16:04:17;8.13;;;1.40;;
24637;SDS011;12773;50.162;8.548;2023-12-20T16:07:04;10.80;;;1.95;;
24637;SDS011;12773;50.162;8.548;2023-12-20T16:09:52;6.03;;;1.30;;
24637;SDS011;12773;50.162;8.548;2023-12-20T16:12:39;4.45;;;1.40;;
24637;SDS011;12773;50.162;8.548;2023-12-20T16:15:27;9.33;;;2.20;;
24637;SDS011;12773;50.162;8.548;2023-12-20T16:18:14;9.25;;;1.52;;
24637;SDS011;12773;50.162;8.548;2023-12-20T16:21:02;6.78;;;1.65;;
24637;SDS011;12773;50.162;8.548;2023-12-20T16:23:50;14.45;;;1.90;;
24637;SDS011;12773;50.162;8.548;2023-12-20T16:26:39;10.32;;;1.92;;
24637;SDS011;12773;50.162;8.548;2023-12-20T16:29:27;5.83;;;1.40;;
24637;SDS011;12773;50.162;8.548;2023-12-20T16:32:14;3.98;;;1.37;;
24637;SDS011;12773;50.162;8.548;2023-12-20T16:35:02;8.05;;;1.92;;
24637;SDS011;12773;50.162;8.548;2023-12-20T16:37:50;9.08;;;1.82;;
24637;SDS011;12773;50.162;8.548;2023-12-20T16:40:38;5.80;;;1.87;;
24637;SDS011;12773;50.162;8.548;2023-12-20T16:43:25;7.10;;;1.70;;
24637;SDS011;12773;50.162;8.548;2023-12-20T16:46:12;13.13;;;2.00;;
24637;SDS011;12773;50.162;8.548;2023-12-20T16:49:00;11.00;;;1.77;;
24637;SDS011;12773;50.162;8.548;2023-12-20T16:51:48;9.28;;;2.02;;